Terminal Aerodrome Forecast
Issued by NWS

Home | Current Version | Previous Version | Text Only | Print | Product List | Glossary On
Versions: 1 2 3 4 5 6 7 8 9 10 11 12 13 14 15
000
FTUS45 KRIW 251120
TAFJAC
TAF
KJAC 251120Z 2512/2612 22008KT 4SM -RASN BKN025 OVC040
     FM252000 19007KT P6SM VCSH SCT030 BKN050
     FM260100 VRB05KT P6SM SCT040 BKN070
     FM260700 35005KT P6SM VCFG FEW005 SCT040
      AMD LTD TO CLD VIS AND WIND=

USA.gov is the U.S. government's official web portal to all federal, state and local government web resources and services.